createdAt,value
2018-12-26T00:00:29.989Z,20.50
2018-12-26T00:01:33.288Z,20.50
2018-12-26T00:02:36.873Z,20.50
2018-12-26T00:04:42.664Z,20.40
2018-12-26T00:05:45.934Z,20.40
2018-12-26T00:06:49.592Z,20.40
2018-12-26T00:12:02.479Z,20.40
2018-12-26T00:13:05.719Z,20.30
2018-12-26T00:16:13.816Z,20.30
2018-12-26T00:18:19.480Z,20.30
2018-12-26T00:20:27.342Z,20.30
2018-12-26T00:21:30.581Z,20.30
2018-12-26T00:22:33.813Z,20.20
2018-12-26T00:23:37.088Z,20.20
2018-12-26T00:24:40.388Z,20.20
2018-12-26T00:26:46.041Z,20.20
2018-12-26T00:28:52.097Z,20.20
2018-12-26T00:30:57.732Z,20.20
2018-12-26T00:33:03.383Z,20.10
2018-12-26T00:35:09.134Z,20.10
2018-12-26T00:36:12.621Z,20.10
2018-12-26T00:38:18.360Z,20.10
2018-12-26T00:39:21.636Z,20.10
2018-12-26T00:40:25.118Z,20.10
2018-12-26T00:41:28.405Z,20.10
2018-12-26T00:42:31.700Z,20.10
2018-12-26T00:44:37.448Z,20.00
2018-12-26T00:45:40.833Z,20.00
2018-12-26T00:48:48.940Z,20.00
2018-12-26T00:52:59.511Z,20.00
2018-12-26T00:54:02.805Z,20.00
2018-12-26T00:59:15.727Z,20.00
2018-12-26T01:00:18.924Z,19.90
2018-12-26T01:01:22.178Z,19.90
2018-12-26T01:02:25.488Z,19.90
2018-12-26T01:03:28.756Z,19.90
2018-12-26T01:05:34.439Z,19.90
2018-12-26T01:07:40.371Z,19.90
2018-12-26T01:08:43.648Z,19.90
2018-12-26T01:11:51.675Z,19.90
2018-12-26T01:12:54.941Z,19.90
2018-12-26T01:13:58.133Z,19.90
2018-12-26T01:16:04.069Z,19.90
2018-12-26T01:17:07.349Z,19.90
2018-12-26T01:18:10.539Z,19.80
2018-12-26T01:19:13.803Z,19.80
2018-12-26T01:20:17.087Z,19.80
2018-12-26T01:21:20.372Z,19.80
2018-12-26T01:23:26.229Z,19.80
2018-12-26T01:24:29.437Z,19.80
2018-12-26T01:27:37.496Z,19.80
2018-12-26T01:33:52.913Z,19.80
2018-12-26T01:34:56.110Z,19.80
2018-12-26T01:38:04.200Z,19.80
2018-12-26T01:39:07.487Z,19.80
2018-12-26T01:41:13.161Z,19.80
2018-12-26T01:43:18.988Z,19.70
2018-12-26T01:46:27.090Z,19.70
2018-12-26T01:47:30.280Z,19.70
2018-12-26T01:49:36.005Z,19.70
2018-12-26T01:51:41.637Z,19.70
2018-12-26T01:54:49.768Z,19.70
2018-12-26T01:56:55.399Z,19.70
2018-12-26T02:00:05.478Z,19.70
2018-12-26T02:01:08.752Z,19.70
2018-12-26T02:02:12.156Z,19.70
2018-12-26T02:04:17.784Z,19.60
2018-12-26T02:07:25.846Z,19.70
2018-12-26T02:08:29.067Z,19.60
2018-12-26T02:09:32.348Z,19.60
2018-12-26T02:10:35.555Z,19.60
2018-12-26T02:11:38.812Z,19.60
2018-12-26T02:12:42.007Z,19.70
2018-12-26T02:14:47.748Z,19.60
2018-12-26T02:15:50.935Z,19.60
2018-12-26T02:16:54.193Z,19.60
2018-12-26T02:18:59.840Z,19.60
2018-12-26T02:20:04.806Z,19.60
2018-12-26T02:22:10.510Z,19.60
2018-12-26T02:25:18.543Z,19.60
2018-12-26T02:26:21.813Z,19.60
2018-12-26T02:32:37.218Z,19.50
2018-12-26T02:34:42.951Z,19.60
2018-12-26T02:37:51.074Z,19.50
2018-12-26T02:39:56.820Z,19.50
2018-12-26T02:43:04.926Z,19.50
2018-12-26T02:48:17.859Z,19.50
2018-12-26T02:50:23.714Z,19.50
2018-12-26T02:51:27.189Z,19.50
2018-12-26T02:53:32.936Z,19.50
2018-12-26T02:54:36.337Z,19.50
2018-12-26T02:57:44.736Z,19.50
2018-12-26T03:00:52.783Z,19.50
2018-12-26T03:01:56.025Z,19.50
2018-12-26T03:02:59.309Z,19.50
2018-12-26T03:05:05.458Z,19.50
2018-12-26T03:06:08.737Z,19.50
2018-12-26T03:11:21.635Z,19.40
2018-12-26T03:13:27.327Z,19.40
2018-12-26T03:18:40.347Z,19.40
2018-12-26T03:19:43.857Z,19.40
2018-12-26T03:20:47.145Z,19.40
2018-12-26T03:21:50.413Z,19.40
2018-12-26T03:24:58.525Z,19.40
2018-12-26T03:29:09.099Z,19.40
2018-12-26T03:30:12.372Z,19.40
2018-12-26T03:31:15.657Z,19.40
2018-12-26T03:32:19.153Z,19.40
2018-12-26T03:35:27.469Z,19.40
2018-12-26T03:36:30.752Z,19.40
2018-12-26T03:38:36.404Z,19.40
2018-12-26T03:39:39.591Z,19.40
2018-12-26T03:41:45.307Z,19.30
2018-12-26T03:43:50.981Z,19.40
2018-12-26T03:48:01.540Z,19.30
2018-12-26T03:49:04.826Z,19.30
2018-12-26T03:50:08.105Z,19.30
2018-12-26T03:51:11.330Z,19.30
2018-12-26T03:55:21.864Z,19.30
2018-12-26T03:57:27.620Z,19.30
2018-12-26T03:58:30.892Z,19.30
2018-12-26T04:00:36.744Z,19.30
2018-12-26T04:02:42.359Z,19.30
2018-12-26T04:03:45.579Z,19.30
2018-12-26T04:04:48.849Z,19.30
2018-12-26T04:06:54.802Z,19.30
2018-12-26T04:09:00.577Z,19.30
2018-12-26T04:10:04.037Z,19.30
2018-12-26T04:11:07.456Z,19.30
2018-12-26T04:12:10.913Z,19.30
2018-12-26T04:13:14.114Z,19.30
2018-12-26T04:15:19.841Z,19.30
2018-12-26T04:18:28.151Z,19.30
2018-12-26T04:19:31.365Z,19.30
2018-12-26T04:22:39.524Z,19.30
2018-12-26T04:24:45.194Z,19.30
2018-12-26T04:25:48.468Z,19.20
2018-12-26T04:26:51.753Z,19.30
2018-12-26T04:28:57.371Z,19.20
2018-12-26T04:30:00.581Z,19.20
2018-12-26T04:31:03.864Z,19.20
2018-12-26T04:32:07.257Z,19.20
2018-12-26T04:33:10.529Z,19.20
2018-12-26T04:34:13.844Z,19.20
2018-12-26T04:36:19.559Z,19.20
2018-12-26T04:40:30.116Z,19.20
2018-12-26T04:43:38.244Z,19.20
2018-12-26T04:45:43.969Z,19.20
2018-12-26T04:46:47.260Z,19.20
2018-12-26T04:48:52.900Z,19.20
2018-12-26T04:53:03.400Z,19.20
2018-12-26T04:58:16.614Z,19.20
2018-12-26T05:06:36.836Z,19.10
2018-12-26T05:07:40.124Z,19.20
2018-12-26T05:09:45.794Z,19.10
2018-12-26T05:11:51.520Z,19.20
2018-12-26T05:12:54.911Z,19.10
2018-12-26T05:13:58.107Z,19.10
2018-12-26T05:27:34.288Z,19.10
2018-12-26T05:29:38.440Z,19.10
2018-12-26T05:30:41.711Z,19.10
2018-12-26T05:32:47.443Z,19.10
2018-12-26T05:36:58.031Z,19.10
2018-12-26T05:40:08.480Z,19.10
2018-12-26T05:41:11.790Z,19.10
2018-12-26T05:46:24.813Z,19.00
2018-12-26T05:49:32.923Z,19.00
2018-12-26T05:50:36.194Z,19.00
2018-12-26T05:51:39.397Z,19.10
2018-12-26T05:52:42.605Z,19.00
2018-12-26T05:57:55.556Z,19.10
2018-12-26T05:58:59.089Z,18.90
2018-12-26T06:00:03.138Z,19.00
2018-12-26T06:01:06.484Z,19.00
2018-12-26T06:05:17.140Z,19.00
2018-12-26T06:06:20.340Z,19.00
2018-12-26T06:09:28.457Z,19.00
2018-12-26T06:11:34.181Z,19.00
2018-12-26T06:12:37.382Z,19.00
2018-12-26T06:15:45.477Z,19.00
2018-12-26T06:19:56.052Z,19.00
2018-12-26T06:20:59.275Z,19.00
2018-12-26T06:22:02.488Z,19.00
2018-12-26T06:24:08.163Z,19.00
2018-12-26T06:28:18.732Z,18.90
2018-12-26T06:30:24.363Z,18.90
2018-12-26T06:32:30.008Z,18.90
2018-12-26T06:33:33.308Z,18.90
2018-12-26T06:34:36.594Z,18.90
2018-12-26T06:36:42.329Z,18.90
2018-12-26T06:37:45.533Z,18.90
2018-12-26T06:38:48.801Z,18.90
2018-12-26T06:40:54.489Z,18.90
2018-12-26T06:44:02.653Z,18.90
2018-12-26T06:46:08.299Z,18.90
2018-12-26T06:47:11.593Z,18.90
2018-12-26T06:48:14.868Z,18.90
2018-12-26T06:51:22.985Z,18.90
2018-12-26T06:53:28.622Z,18.90
2018-12-26T06:55:34.288Z,18.90
2018-12-26T06:56:37.764Z,18.90
2018-12-26T06:58:43.502Z,18.90
2018-12-26T06:59:46.887Z,18.90
2018-12-26T07:00:50.103Z,18.90
2018-12-26T07:02:55.821Z,18.90
2018-12-26T07:03:59.025Z,18.90
2018-12-26T07:06:04.846Z,18.90
2018-12-26T07:08:10.496Z,18.90
2018-12-26T07:12:21.318Z,18.80
2018-12-26T07:14:27.117Z,18.80
2018-12-26T07:19:40.153Z,18.80
2018-12-26T07:21:47.860Z,18.90
2018-12-26T07:22:51.032Z,18.80
2018-12-26T07:25:59.086Z,18.90
2018-12-26T07:28:08.961Z,18.90
2018-12-26T07:29:09.904Z,18.90
2018-12-26T07:32:18.016Z,18.90
2018-12-26T07:33:21.501Z,18.90
2018-12-26T07:34:24.695Z,18.90
2018-12-26T07:36:30.414Z,18.90
2018-12-26T07:37:33.711Z,18.90
2018-12-26T07:40:41.815Z,18.90
2018-12-26T07:43:49.916Z,18.90
2018-12-26T07:44:53.218Z,18.80
2018-12-26T07:46:58.853Z,18.80
2018-12-26T07:48:02.047Z,18.80
2018-12-26T07:51:10.347Z,18.80
2018-12-26T07:53:15.983Z,18.80
2018-12-26T07:56:24.417Z,18.80
2018-12-26T07:57:27.697Z,18.80
2018-12-26T08:00:35.799Z,18.80
2018-12-26T08:01:39.089Z,18.80
2018-12-26T08:05:49.665Z,18.80
2018-12-26T08:06:52.947Z,18.80
2018-12-26T08:10:01.353Z,18.80
2018-12-26T08:12:07.023Z,18.80
2018-12-26T08:13:10.281Z,18.80
2018-12-26T08:16:18.397Z,18.80
2018-12-26T08:17:21.689Z,18.80
2018-12-26T08:18:25.069Z,18.80
2018-12-26T08:20:30.817Z,18.80
2018-12-26T08:21:34.109Z,18.80
2018-12-26T08:23:39.744Z,18.80
2018-12-26T08:33:02.521Z,18.80
2018-12-26T08:34:06.015Z,18.80
2018-12-26T08:35:09.305Z,18.80
2018-12-26T08:36:12.552Z,18.80
2018-12-26T08:39:20.687Z,18.80
2018-12-26T08:43:31.265Z,18.80
2018-12-26T08:44:34.469Z,18.80
2018-12-26T08:47:42.658Z,18.80
2018-12-26T08:49:48.289Z,18.80
2018-12-26T08:51:53.952Z,18.80
2018-12-26T08:52:57.236Z,18.80
2018-12-26T09:00:15.147Z,18.90
2018-12-26T09:01:18.365Z,19.00
2018-12-26T09:03:24.012Z,19.30
2018-12-26T09:04:27.306Z,19.30
2018-12-26T09:05:30.589Z,19.30
2018-12-26T09:07:36.346Z,19.50
2018-12-26T09:08:39.724Z,19.50
2018-12-26T09:09:43.007Z,19.60
2018-12-26T09:13:53.479Z,19.80
2018-12-26T09:14:56.750Z,19.80
2018-12-26T09:17:02.400Z,19.90
2018-12-26T09:18:05.676Z,19.90
2018-12-26T09:22:16.245Z,20.00
2018-12-26T09:24:21.897Z,20.00
2018-12-26T09:27:30.311Z,20.10
2018-12-26T09:28:33.698Z,20.10
2018-12-26T09:29:36.970Z,20.20
2018-12-26T09:30:40.264Z,20.20
2018-12-26T09:32:45.926Z,20.20
2018-12-26T09:33:49.201Z,20.20
2018-12-26T09:36:57.310Z,20.20
2018-12-26T09:38:00.513Z,20.30
2018-12-26T09:41:10.630Z,20.30
2018-12-26T09:42:13.923Z,20.30
2018-12-26T09:43:17.204Z,20.30
2018-12-26T09:45:22.846Z,20.30
2018-12-26T09:48:30.940Z,20.40
2018-12-26T09:50:36.601Z,20.40
2018-12-26T09:52:42.331Z,20.40
2018-12-26T09:53:45.641Z,20.40
2018-12-26T09:54:49.365Z,20.40
2018-12-26T09:57:57.636Z,20.40
2018-12-26T10:02:09.130Z,20.50
2018-12-26T10:03:12.620Z,20.50
2018-12-26T10:04:16.173Z,20.50
2018-12-26T10:10:31.613Z,20.60
2018-12-26T10:13:39.725Z,20.60
2018-12-26T10:14:42.933Z,20.60
2018-12-26T10:15:46.131Z,20.60
2018-12-26T10:17:51.816Z,20.60
2018-12-26T10:18:55.113Z,20.60
2018-12-26T10:19:58.358Z,20.60
2018-12-26T10:22:04.135Z,20.60
2018-12-26T10:23:07.423Z,20.70
2018-12-26T10:24:11.369Z,20.70
2018-12-26T10:25:14.599Z,20.70
2018-12-26T10:26:17.988Z,20.70
2018-12-26T10:27:21.277Z,20.70
2018-12-26T10:28:24.551Z,20.70
2018-12-26T10:34:40.469Z,20.80
2018-12-26T10:35:43.744Z,20.80
2018-12-26T10:37:49.405Z,20.80
2018-12-26T10:39:55.136Z,20.90
2018-12-26T10:42:00.754Z,20.90
2018-12-26T10:44:06.434Z,20.80
2018-12-26T10:46:12.077Z,20.90
2018-12-26T10:49:20.228Z,20.80
2018-12-26T10:53:30.751Z,20.80
2018-12-26T10:54:34.037Z,20.80
2018-12-26T10:55:37.324Z,20.80
2018-12-26T10:56:40.599Z,20.80
2018-12-26T10:58:46.345Z,20.90
2018-12-26T11:00:51.997Z,20.90
2018-12-26T11:01:55.287Z,20.90
2018-12-26T11:06:06.737Z,20.90
2018-12-26T11:08:12.407Z,20.90
2018-12-26T11:10:18.044Z,20.90
2018-12-26T11:11:21.344Z,20.90
2018-12-26T11:12:24.547Z,20.90
2018-12-26T11:13:27.741Z,20.90
2018-12-26T11:15:33.561Z,20.90
2018-12-26T11:16:36.775Z,20.90
2018-12-26T11:19:44.953Z,20.90
2018-12-26T11:21:50.697Z,20.90
2018-12-26T11:26:01.175Z,20.90
2018-12-26T11:30:11.845Z,20.90
2018-12-26T11:32:18.095Z,20.90
2018-12-26T11:33:21.305Z,20.90
2018-12-26T11:34:24.553Z,20.90
2018-12-26T11:35:27.830Z,20.90
2018-12-26T11:37:33.493Z,20.90
2018-12-26T11:38:36.773Z,21.00
2018-12-26T11:39:40.055Z,20.90
2018-12-26T11:40:43.340Z,21.00
2018-12-26T11:42:49.707Z,21.00
2018-12-26T11:44:55.329Z,21.00
2018-12-26T11:45:58.632Z,21.00
2018-12-26T11:50:09.205Z,21.00
2018-12-26T11:52:15.631Z,21.00
2018-12-26T11:55:23.776Z,21.00
2018-12-26T11:57:29.522Z,21.00
2018-12-26T12:00:37.624Z,21.00
2018-12-26T12:03:45.741Z,21.10
2018-12-26T12:04:49.045Z,21.00
2018-12-26T12:05:52.501Z,21.10
2018-12-26T12:07:58.162Z,21.00
2018-12-26T12:10:04.936Z,21.00
2018-12-26T12:12:10.671Z,21.00
2018-12-26T12:14:16.321Z,21.00
2018-12-26T12:18:26.872Z,21.00
2018-12-26T12:23:39.824Z,21.00
2018-12-26T12:28:52.865Z,21.00
2018-12-26T12:32:00.933Z,21.00
2018-12-26T12:33:04.865Z,21.00
2018-12-26T12:35:10.513Z,21.10
2018-12-26T12:36:13.797Z,21.10
2018-12-26T12:38:19.530Z,21.10
2018-12-26T12:41:27.648Z,21.10
2018-12-26T12:42:30.933Z,21.10
2018-12-26T12:44:36.571Z,21.10
2018-12-26T12:47:44.692Z,21.10
2018-12-26T12:51:55.261Z,21.00
2018-12-26T12:55:03.567Z,21.00
2018-12-26T12:56:11.855Z,21.00
2018-12-26T13:02:24.197Z,20.60
2018-12-26T13:03:27.692Z,21.00
2018-12-26T13:04:30.899Z,21.00
2018-12-26T13:05:34.152Z,21.00
2018-12-26T13:06:37.432Z,21.00
2018-12-26T13:07:40.716Z,21.00
2018-12-26T13:10:48.819Z,21.00
2018-12-26T13:13:56.932Z,21.00
2018-12-26T13:20:12.333Z,21.00
2018-12-26T13:21:15.672Z,21.00
2018-12-26T13:24:23.809Z,21.00
2018-12-26T13:25:27.019Z,21.00
2018-12-26T13:27:32.639Z,21.10
2018-12-26T13:28:36.330Z,21.10
2018-12-26T13:29:39.624Z,21.10
2018-12-26T13:31:45.381Z,21.10
2018-12-26T13:32:48.661Z,21.10
2018-12-26T13:35:56.769Z,21.10
2018-12-26T13:38:02.427Z,21.10
2018-12-26T13:46:40.712Z,21.10
2018-12-26T13:47:44.045Z,21.10
2018-12-26T13:52:56.972Z,21.00
2018-12-26T13:54:00.258Z,20.90
2018-12-26T13:55:03.875Z,21.00
2018-12-26T13:58:11.961Z,20.90
2018-12-26T14:00:17.685Z,20.90
2018-12-26T14:03:25.707Z,20.80
2018-12-26T14:06:08.842Z,18.30
2018-12-26T14:07:12.232Z,15.90
2018-12-26T14:08:15.428Z,14.40
2018-12-26T14:09:18.693Z,13.30
2018-12-26T14:14:31.561Z,10.50
2018-12-26T14:15:34.782Z,10.20
2018-12-26T14:17:40.357Z,9.90
2018-12-26T14:19:45.969Z,9.60
2018-12-26T14:20:49.281Z,9.50
2018-12-26T14:21:52.473Z,9.50
2018-12-26T14:25:00.502Z,9.30
2018-12-26T14:27:06.347Z,9.20
2018-12-26T14:30:15.268Z,9.20
2018-12-26T14:33:23.295Z,9.10
2018-12-26T14:35:28.979Z,9.10
2018-12-26T14:36:32.183Z,9.00
2018-12-26T14:37:35.444Z,9.00
2018-12-26T14:38:38.639Z,9.00
2018-12-26T14:39:41.828Z,9.00
2018-12-26T14:44:54.739Z,9.00
2018-12-26T14:45:58.073Z,9.00
2018-12-26T14:48:03.671Z,8.90
2018-12-26T14:50:09.282Z,9.00
2018-12-26T14:55:22.164Z,8.90
2018-12-26T14:56:25.340Z,8.90
2018-12-26T14:59:33.357Z,8.90
2018-12-26T15:00:36.535Z,8.90
2018-12-26T15:02:42.144Z,8.90
2018-12-26T15:03:45.349Z,8.90
2018-12-26T15:05:50.951Z,8.90
2018-12-26T15:07:56.632Z,8.90
2018-12-26T15:10:02.240Z,8.80
2018-12-26T15:13:10.256Z,8.80
2018-12-26T15:18:23.212Z,8.80
2018-12-26T15:19:26.395Z,8.80
2018-12-26T15:20:29.591Z,8.80
2018-12-26T15:22:35.226Z,8.70
2018-12-26T15:23:38.426Z,8.70
2018-12-26T15:24:41.893Z,8.70
2018-12-26T15:25:45.172Z,8.70
2018-12-26T15:26:48.360Z,8.70
2018-12-26T15:27:51.557Z,8.70
2018-12-26T15:28:56.420Z,8.70
2018-12-26T15:29:59.954Z,8.70
2018-12-26T15:31:03.215Z,8.70
2018-12-26T15:32:06.584Z,8.70
2018-12-26T15:34:12.261Z,8.70
2018-12-26T15:38:22.701Z,8.70
2018-12-26T15:40:28.367Z,8.60
2018-12-26T15:41:31.556Z,8.60
2018-12-26T15:42:34.753Z,8.60
2018-12-26T15:43:37.933Z,8.60
2018-12-26T15:44:41.197Z,8.60
2018-12-26T15:45:44.396Z,8.60
2018-12-26T15:49:54.838Z,8.60
2018-12-26T15:57:12.517Z,8.50
2018-12-26T15:59:18.161Z,8.50
2018-12-26T16:02:27.074Z,8.50
2018-12-26T16:03:30.559Z,8.50
2018-12-26T16:04:33.757Z,8.50
2018-12-26T16:06:39.370Z,8.50
2018-12-26T16:07:42.556Z,8.50
2018-12-26T16:08:45.757Z,8.50
2018-12-26T16:10:51.474Z,8.50
2018-12-26T16:11:54.848Z,8.50
2018-12-26T16:12:58.055Z,8.50
2018-12-26T16:15:06.008Z,8.50
2018-12-26T16:16:09.211Z,8.50
2018-12-26T16:20:19.729Z,8.50
2018-12-26T16:23:27.740Z,8.40
2018-12-26T16:26:35.835Z,8.40
2018-12-26T16:28:41.472Z,8.40
2018-12-26T16:30:47.120Z,8.40
2018-12-26T16:31:50.322Z,8.40
2018-12-26T16:33:55.962Z,8.40
2018-12-26T16:41:14.461Z,8.30
2018-12-26T16:45:24.883Z,8.30
2018-12-26T16:46:28.083Z,8.30
2018-12-26T16:48:33.671Z,8.30
2018-12-26T16:49:37.210Z,8.30
2018-12-26T16:50:40.418Z,8.30
2018-12-26T16:52:46.028Z,8.30
2018-12-26T16:59:01.292Z,8.30
2018-12-26T17:01:10.266Z,8.30
2018-12-26T17:02:13.456Z,8.30
2018-12-26T17:04:19.059Z,8.20
2018-12-26T17:09:32.020Z,8.20
2018-12-26T17:10:35.199Z,8.20
2018-12-26T17:11:38.383Z,8.20
2018-12-26T17:12:41.577Z,8.20
2018-12-26T17:14:47.192Z,8.20
2018-12-26T17:15:50.375Z,8.20
2018-12-26T17:17:55.986Z,8.20
2018-12-26T17:20:01.580Z,8.20
2018-12-26T17:22:07.198Z,8.20
2018-12-26T17:23:10.394Z,8.20
2018-12-26T17:24:16.696Z,8.20
2018-12-26T17:26:21.246Z,8.20
2018-12-26T17:27:24.435Z,8.20
2018-12-26T17:28:27.620Z,8.20
2018-12-26T17:30:33.219Z,8.20
2018-12-26T17:32:38.838Z,8.20
2018-12-26T17:33:42.096Z,8.20
2018-12-26T17:34:45.280Z,8.10
2018-12-26T17:36:50.922Z,8.20
2018-12-26T17:37:54.108Z,8.20
2018-12-26T17:45:14.233Z,8.10
2018-12-26T17:48:22.257Z,8.10
2018-12-26T17:52:45.488Z,8.10
2018-12-26T17:54:04.190Z,8.10
2018-12-26T17:57:20.427Z,8.10
2018-12-26T17:58:27.848Z,8.10
2018-12-26T18:00:37.652Z,8.10
2018-12-26T18:05:08.116Z,8.10
2018-12-26T18:08:16.212Z,8.10
2018-12-26T18:09:19.693Z,8.00
2018-12-26T18:11:25.329Z,8.10
2018-12-26T18:12:28.521Z,8.00
2018-12-26T18:15:36.565Z,8.10
2018-12-26T18:22:54.247Z,8.00
2018-12-26T18:23:57.717Z,8.00
2018-12-26T18:25:01.149Z,8.00
2018-12-26T18:26:04.601Z,8.00
2018-12-26T18:28:10.449Z,8.00
2018-12-26T18:30:16.137Z,8.00
2018-12-26T18:33:24.151Z,8.00
2018-12-26T18:34:27.338Z,8.00
2018-12-26T18:37:35.356Z,8.00
2018-12-26T18:42:48.465Z,8.00
2018-12-26T18:46:59.028Z,8.00
2018-12-26T18:49:04.584Z,8.00
2018-12-26T18:50:08.376Z,8.00
2018-12-26T18:52:13.988Z,8.00
2018-12-26T18:53:17.172Z,8.00
2018-12-26T18:54:20.360Z,8.00
2018-12-26T18:56:25.964Z,8.00
2018-12-26T18:58:31.576Z,8.00
2018-12-26T18:59:34.762Z,8.00
2018-12-26T19:01:40.618Z,8.00
2018-12-26T19:02:43.813Z,8.00
2018-12-26T19:03:47.068Z,8.00
2018-12-26T19:04:50.252Z,8.00
2018-12-26T19:05:53.537Z,7.90
2018-12-26T19:09:01.653Z,8.00
2018-12-26T19:15:18.756Z,8.00
2018-12-26T19:18:26.792Z,8.00
2018-12-26T19:19:30.069Z,7.90
2018-12-26T19:22:38.088Z,7.90
2018-12-26T19:23:41.286Z,7.90
2018-12-26T19:25:46.886Z,7.90
2018-12-26T19:26:50.095Z,7.90
2018-12-26T19:27:53.272Z,7.90
2018-12-26T19:29:59.488Z,7.90
2018-12-26T19:32:05.536Z,7.90
2018-12-26T19:36:16.009Z,7.90
2018-12-26T19:37:19.214Z,7.90
2018-12-26T19:38:22.405Z,7.90
2018-12-26T19:40:28.068Z,7.90
2018-12-26T19:43:36.087Z,7.90
2018-12-26T19:44:39.309Z,7.90
2018-12-26T19:45:42.736Z,7.90
2018-12-26T19:47:48.339Z,7.90
2018-12-26T19:50:10.178Z,7.90
2018-12-26T19:57:27.924Z,7.90
2018-12-26T19:59:33.530Z,7.80
2018-12-26T20:00:36.704Z,7.90
2018-12-26T20:03:44.733Z,7.80
2018-12-26T20:04:47.928Z,7.80
2018-12-26T20:07:55.979Z,7.90
2018-12-26T20:08:59.172Z,7.80
2018-12-26T20:13:09.740Z,7.80
2018-12-26T20:14:12.926Z,7.90
2018-12-26T20:15:16.132Z,7.90
2018-12-26T20:17:21.837Z,7.80
2018-12-26T20:19:27.873Z,7.90
2018-12-26T20:20:31.171Z,7.80
2018-12-26T20:21:34.646Z,7.90
2018-12-26T20:22:37.797Z,7.80
2018-12-26T20:23:40.993Z,7.80
2018-12-26T20:24:44.187Z,7.80
2018-12-26T20:27:52.448Z,7.80
2018-12-26T20:28:55.635Z,7.80
2018-12-26T20:32:03.659Z,7.80
2018-12-26T20:33:06.862Z,7.80
2018-12-26T20:34:10.050Z,7.80
2018-12-26T20:37:18.318Z,7.80
2018-12-26T20:39:24.024Z,7.80
2018-12-26T20:43:34.465Z,7.80
2018-12-26T20:49:49.806Z,7.80
2018-12-26T20:52:02.099Z,7.80
2018-12-26T20:54:07.845Z,7.80
2018-12-26T20:56:13.436Z,7.80
2018-12-26T20:57:16.623Z,7.80
2018-12-26T20:58:19.825Z,7.70
2018-12-26T20:59:23.123Z,7.80
2018-12-26T21:01:28.728Z,7.70
2018-12-26T21:05:39.168Z,7.70
2018-12-26T21:07:44.784Z,7.70
2018-12-26T21:08:48.070Z,7.70
2018-12-26T21:09:51.261Z,7.70
2018-12-26T21:12:59.359Z,7.70
2018-12-26T21:15:05.703Z,7.70
2018-12-26T21:17:11.325Z,7.70
2018-12-26T21:18:14.846Z,7.70
2018-12-26T21:19:18.041Z,7.70
2018-12-26T21:24:30.889Z,7.70
2018-12-26T21:29:43.977Z,7.70
2018-12-26T21:30:47.573Z,7.70
2018-12-26T21:32:53.549Z,7.70
2018-12-26T21:33:57.029Z,7.70
2018-12-26T21:35:00.267Z,7.70
2018-12-26T21:37:06.048Z,7.70
2018-12-26T21:39:11.658Z,7.70
2018-12-26T21:45:26.941Z,7.70
2018-12-26T21:46:30.137Z,7.70
2018-12-26T21:47:33.320Z,7.60
2018-12-26T21:51:43.761Z,7.60
2018-12-26T21:55:54.207Z,7.60
2018-12-26T21:56:57.391Z,7.60
2018-12-26T21:59:03.006Z,7.60
2018-12-26T22:00:07.845Z,7.60
2018-12-26T22:02:13.456Z,7.60
2018-12-26T22:04:19.059Z,7.60
2018-12-26T22:05:22.249Z,7.60
2018-12-26T22:08:30.277Z,7.60
2018-12-26T22:09:33.465Z,7.60
2018-12-26T22:10:36.658Z,7.60
2018-12-26T22:12:42.257Z,7.60
2018-12-26T22:13:45.444Z,7.60
2018-12-26T22:14:48.645Z,7.60
2018-12-26T22:16:54.270Z,7.60
2018-12-26T22:20:02.295Z,7.60
2018-12-26T22:23:10.315Z,7.50
2018-12-26T22:24:13.540Z,7.60
2018-12-26T22:25:17.007Z,7.60
2018-12-26T22:26:20.232Z,7.60
2018-12-26T22:27:23.422Z,7.50
2018-12-26T22:28:26.621Z,7.60
2018-12-26T22:29:29.805Z,7.60
2018-12-26T22:36:47.481Z,7.50
2018-12-26T22:38:53.120Z,7.50
2018-12-26T22:42:01.145Z,7.50
2018-12-26T22:46:11.615Z,7.50
2018-12-26T22:48:17.195Z,7.50
2018-12-26T22:50:22.805Z,7.50
2018-12-26T22:52:28.407Z,7.50
2018-12-26T22:53:31.600Z,7.50
2018-12-26T22:54:34.805Z,7.50
2018-12-26T22:55:37.988Z,7.50
2018-12-26T22:57:43.607Z,7.50
2018-12-26T22:58:46.779Z,7.50
2018-12-26T22:59:49.992Z,7.50
2018-12-26T23:00:53.188Z,7.50
2018-12-26T23:02:58.803Z,7.50
2018-12-26T23:08:11.957Z,7.50
2018-12-26T23:13:24.799Z,7.40
2018-12-26T23:14:27.992Z,7.40
2018-12-26T23:16:33.603Z,7.50
2018-12-26T23:17:36.797Z,7.40
2018-12-26T23:18:39.992Z,7.40
2018-12-26T23:20:45.615Z,7.40
2018-12-26T23:21:49.065Z,7.40
2018-12-26T23:24:57.093Z,7.40
2018-12-26T23:26:00.530Z,7.40
2018-12-26T23:29:08.580Z,7.40
2018-12-26T23:36:26.261Z,7.40
2018-12-26T23:37:29.443Z,7.40
2018-12-26T23:38:32.657Z,7.20
2018-12-26T23:40:38.256Z,7.40
2018-12-26T23:47:55.952Z,7.40
2018-12-26T23:48:59.165Z,7.40
2018-12-26T23:51:05.304Z,7.30
2018-12-26T23:53:10.913Z,7.30
2018-12-26T23:54:14.115Z,7.30
2018-12-26T23:55:17.381Z,7.30
2018-12-26T23:59:27.811Z,7.30
